N36BG TFFR-TGPY
Flight info
| Callsign | N36BG |
|---|---|
| Flight time | 2h 45m |
| Altitude | 4500 |
| Route | 161421N0612125W 155549N0611732W 151646N0611434W 144902N0611333W 144015N0611120W 140157N0610117W 134740N0610408W 132006N0611402W 123900N0612341W 121837N0613427W 121256N0614208W DCT 120603N0614606W |
| Aircraft | BE36/L-BDFGLORY/S |
Departure
| Time | 2026-04-25 12:42 |
|---|---|
| Airport | Maryse Condé International Airport (TFFR) |
Arrival
| Time | 2026-04-25 15:27 |
|---|---|
| Airport | Maurice Bishop International Airport (TGPY) |
| Time | Latitude | Longitude | Altitude | Speed | Heading |
|---|---|---|---|---|---|
| 2026-04-25 12:31 | 16.26312 | -61.52947 | 23 ft | 0 kts | 10° |
| 2026-04-25 12:37 | 16.26314 | -61.52946 | 23 ft | 0 kts | 10° |
| 2026-04-25 12:37 | 16.26313 | -61.52946 | 23 ft | 2 kts | 13° |
| 2026-04-25 12:37 | 16.26308 | -61.52950 | 23 ft | 0 kts | 67° |
| 2026-04-25 12:38 | 16.26309 | -61.52947 | 23 ft | 2 kts | 74° |
| 2026-04-25 12:38 | 16.26339 | -61.52909 | 24 ft | 12 kts | 30° |
| 2026-04-25 12:39 | 16.26337 | -61.52825 | 24 ft | 13 kts | 101° |
| 2026-04-25 12:39 | 16.26318 | -61.52724 | 25 ft | 15 kts | 101° |
| 2026-04-25 12:39 | 16.26296 | -61.52612 | 26 ft | 16 kts | 102° |
| 2026-04-25 12:39 | 16.26326 | -61.52611 | 25 ft | 13 kts | 260° |
| 2026-04-25 12:40 | 16.26319 | -61.52716 | 25 ft | 16 kts | 272° |
| 2026-04-25 12:40 | 16.26337 | -61.52847 | 24 ft | 20 kts | 276° |
| 2026-04-25 12:40 | 16.26367 | -61.53000 | 22 ft | 23 kts | 280° |
| 2026-04-25 12:40 | 16.26431 | -61.53129 | 21 ft | 11 kts | 321° |
| 2026-04-25 12:41 | 16.26505 | -61.53177 | 21 ft | 10 kts | 339° |
| 2026-04-25 12:41 | 16.26514 | -61.53104 | 21 ft | 22 kts | 100° |
| 2026-04-25 12:41 | 16.26443 | -61.52715 | 23 ft | 81 kts | 101° |
| 2026-04-25 12:41 | 16.26317 | -61.52053 | 166 ft | 99 kts | 102° |
| 2026-04-25 12:42 | 16.26223 | -61.51342 | 526 ft | 97 kts | 99° |
| 2026-04-25 12:42 | 16.26185 | -61.50908 | 858 ft | 86 kts | 99° |
| 2026-04-25 12:42 | 16.26090 | -61.50110 | 1313 ft | 81 kts | 101° |
| 2026-04-25 12:42 | 16.26008 | -61.49522 | 1673 ft | 83 kts | 102° |
| 2026-04-25 12:43 | 16.25922 | -61.48923 | 2060 ft | 85 kts | 103° |
| 2026-04-25 12:43 | 16.25832 | -61.48308 | 2470 ft | 87 kts | 102° |
| 2026-04-25 12:43 | 16.25647 | -61.47089 | 3193 ft | 85 kts | 102° |
| 2026-04-25 12:44 | 16.25557 | -61.46479 | 3532 ft | 86 kts | 102° |
| 2026-04-25 12:44 | 16.25461 | -61.45855 | 3844 ft | 88 kts | 102° |
| 2026-04-25 12:44 | 16.25271 | -61.44593 | 4430 ft | 92 kts | 103° |
| 2026-04-25 12:45 | 16.25154 | -61.43845 | 4452 ft | 114 kts | 103° |
| 2026-04-25 12:45 | 16.25021 | -61.42990 | 4448 ft | 125 kts | 102° |
| 2026-04-25 12:45 | 16.24730 | -61.41081 | 4448 ft | 140 kts | 102° |
| 2026-04-25 12:46 | 16.24576 | -61.40062 | 4449 ft | 145 kts | 101° |
| 2026-04-25 12:46 | 16.24419 | -61.39019 | 4450 ft | 147 kts | 102° |
| 2026-04-25 12:46 | 16.24260 | -61.37955 | 4447 ft | 151 kts | 102° |
| 2026-04-25 12:46 | 16.24031 | -61.36884 | 4448 ft | 154 kts | 115° |
| 2026-04-25 12:47 | 16.23401 | -61.35978 | 4454 ft | 157 kts | 137° |
| 2026-04-25 12:47 | 16.22470 | -61.35394 | 4448 ft | 158 kts | 161° |
| 2026-04-25 12:47 | 16.21401 | -61.35152 | 4447 ft | 157 kts | 168° |
| 2026-04-25 12:47 | 16.20329 | -61.34947 | 4447 ft | 157 kts | 168° |
| 2026-04-25 12:48 | 16.19260 | -61.34725 | 4449 ft | 157 kts | 167° |
| 2026-04-25 12:48 | 16.18188 | -61.34497 | 4447 ft | 158 kts | 167° |
| 2026-04-25 12:48 | 16.17112 | -61.34269 | 4447 ft | 158 kts | 167° |
| 2026-04-25 12:48 | 16.16040 | -61.34044 | 4447 ft | 157 kts | 167° |
| 2026-04-25 12:49 | 16.14969 | -61.33818 | 4450 ft | 158 kts | 167° |
| 2026-04-25 12:49 | 16.13894 | -61.33592 | 4450 ft | 158 kts | 167° |
| 2026-04-25 12:49 | 16.12818 | -61.33369 | 4449 ft | 158 kts | 167° |
| 2026-04-25 12:49 | 16.11745 | -61.33143 | 4449 ft | 157 kts | 167° |
| 2026-04-25 12:50 | 16.10677 | -61.32918 | 4451 ft | 157 kts | 167° |
| 2026-04-25 12:50 | 16.09608 | -61.32696 | 4447 ft | 157 kts | 167° |
| 2026-04-25 12:50 | 16.08542 | -61.32473 | 4447 ft | 156 kts | 167° |
| 2026-04-25 12:50 | 16.07478 | -61.32249 | 4449 ft | 157 kts | 167° |
| 2026-04-25 12:51 | 16.06408 | -61.32024 | 4445 ft | 156 kts | 167° |
| 2026-04-25 12:51 | 16.05349 | -61.31804 | 4451 ft | 155 kts | 166° |
| 2026-04-25 12:51 | 16.04289 | -61.31581 | 4447 ft | 156 kts | 167° |
| 2026-04-25 12:51 | 16.03227 | -61.31356 | 4451 ft | 156 kts | 167° |
| 2026-04-25 12:52 | 16.02164 | -61.31134 | 4453 ft | 156 kts | 167° |
| 2026-04-25 12:52 | 16.01102 | -61.30913 | 4453 ft | 155 kts | 167° |
| 2026-04-25 12:52 | 16.00043 | -61.30690 | 4454 ft | 155 kts | 167° |
| 2026-04-25 12:52 | 15.98981 | -61.30469 | 4454 ft | 156 kts | 167° |
| 2026-04-25 12:53 | 15.97914 | -61.30247 | 4456 ft | 159 kts | 167° |
| 2026-04-25 12:53 | 15.96824 | -61.30017 | 4458 ft | 160 kts | 167° |
| 2026-04-25 12:53 | 15.95742 | -61.29792 | 4454 ft | 161 kts | 167° |
| 2026-04-25 12:53 | 15.94648 | -61.29562 | 4462 ft | 161 kts | 167° |
| 2026-04-25 12:54 | 15.93537 | -61.29328 | 4452 ft | 163 kts | 167° |
| 2026-04-25 12:54 | 15.92421 | -61.29152 | 4452 ft | 162 kts | 173° |
| 2026-04-25 12:54 | 15.91287 | -61.29071 | 4453 ft | 164 kts | 175° |
| 2026-04-25 12:54 | 15.90149 | -61.28996 | 4456 ft | 164 kts | 174° |
| 2026-04-25 12:55 | 15.89004 | -61.28915 | 4455 ft | 166 kts | 174° |
| 2026-04-25 12:55 | 15.88240 | -61.28858 | 4452 ft | 166 kts | 174° |
| 2026-04-25 12:55 | 15.86716 | -61.28741 | 4455 ft | 164 kts | 173° |
| 2026-04-25 12:55 | 15.85583 | -61.28655 | 4454 ft | 163 kts | 173° |
| 2026-04-25 12:56 | 15.84458 | -61.28570 | 4454 ft | 161 kts | 173° |
| 2026-04-25 12:56 | 15.83342 | -61.28487 | 4453 ft | 160 kts | 173° |
| 2026-04-25 12:56 | 15.82233 | -61.28400 | 4453 ft | 160 kts | 173° |
| 2026-04-25 12:56 | 15.81128 | -61.28316 | 4450 ft | 159 kts | 173° |
| 2026-04-25 12:57 | 15.80031 | -61.28234 | 4453 ft | 157 kts | 173° |
| 2026-04-25 12:57 | 15.78941 | -61.28149 | 4453 ft | 157 kts | 173° |
| 2026-04-25 12:57 | 15.77851 | -61.28067 | 4455 ft | 157 kts | 173° |
| 2026-04-25 12:57 | 15.76762 | -61.27983 | 4455 ft | 157 kts | 173° |
| 2026-04-25 12:58 | 15.75671 | -61.27901 | 4456 ft | 157 kts | 173° |
| 2026-04-25 12:58 | 15.74577 | -61.27818 | 4455 ft | 158 kts | 173° |
| 2026-04-25 12:58 | 15.73484 | -61.27733 | 4458 ft | 158 kts | 173° |
| 2026-04-25 12:58 | 15.72389 | -61.27651 | 4457 ft | 158 kts | 173° |
| 2026-04-25 12:59 | 15.71308 | -61.27569 | 4459 ft | 157 kts | 173° |
| 2026-04-25 12:59 | 15.70219 | -61.27486 | 4456 ft | 157 kts | 173° |
| 2026-04-25 12:59 | 15.69120 | -61.27403 | 4461 ft | 156 kts | 173° |
| 2026-04-25 12:59 | 15.68049 | -61.27321 | 4460 ft | 156 kts | 173° |
| 2026-04-25 13:00 | 15.66965 | -61.27238 | 4458 ft | 157 kts | 173° |
| 2026-04-25 13:00 | 15.66598 | -61.27211 | 4461 ft | 157 kts | 173° |
| 2026-04-25 13:00 | 15.64783 | -61.27073 | 4461 ft | 157 kts | 173° |
| 2026-04-25 13:00 | 15.63691 | -61.26990 | 4462 ft | 157 kts | 173° |
| 2026-04-25 13:01 | 15.62598 | -61.26907 | 4464 ft | 158 kts | 173° |
| 2026-04-25 13:01 | 15.61504 | -61.26824 | 4462 ft | 157 kts | 173° |
| 2026-04-25 13:01 | 15.60411 | -61.26740 | 4460 ft | 157 kts | 173° |
| 2026-04-25 13:01 | 15.59321 | -61.26657 | 4466 ft | 157 kts | 173° |
| 2026-04-25 13:02 | 15.58231 | -61.26576 | 4468 ft | 157 kts | 173° |
| 2026-04-25 13:02 | 15.57140 | -61.26494 | 4461 ft | 157 kts | 173° |
| 2026-04-25 13:02 | 15.56047 | -61.26409 | 4461 ft | 157 kts | 173° |
| 2026-04-25 13:02 | 15.54953 | -61.26326 | 4460 ft | 158 kts | 173° |
| 2026-04-25 13:03 | 15.53858 | -61.26242 | 4458 ft | 158 kts | 173° |
| 2026-04-25 13:03 | 15.53132 | -61.26187 | 4460 ft | 158 kts | 173° |
| 2026-04-25 13:03 | 15.51673 | -61.26078 | 4463 ft | 157 kts | 173° |
| 2026-04-25 13:03 | 15.50568 | -61.25991 | 4477 ft | 163 kts | 173° |
| 2026-04-25 13:04 | 15.49811 | -61.25934 | 4465 ft | 166 kts | 173° |
| 2026-04-25 13:04 | 15.48676 | -61.25849 | 4462 ft | 161 kts | 173° |
| 2026-04-25 13:04 | 15.47205 | -61.25738 | 4468 ft | 160 kts | 173° |
| 2026-04-25 13:04 | 15.46457 | -61.25684 | 4492 ft | 158 kts | 173° |
| 2026-04-25 13:05 | 15.45014 | -61.25574 | 4490 ft | 157 kts | 172° |
| 2026-04-25 13:05 | 15.44284 | -61.25516 | 4508 ft | 161 kts | 172° |
| 2026-04-25 13:05 | 15.43127 | -61.25426 | 4490 ft | 164 kts | 173° |
| 2026-04-25 13:05 | 15.42016 | -61.25342 | 4487 ft | 161 kts | 173° |
| 2026-04-25 13:06 | 15.40911 | -61.25260 | 4509 ft | 160 kts | 173° |
| 2026-04-25 13:06 | 15.39791 | -61.25174 | 4444 ft | 160 kts | 173° |
| 2026-04-25 13:06 | 15.38682 | -61.25092 | 4448 ft | 160 kts | 173° |
| 2026-04-25 13:06 | 15.37572 | -61.25010 | 4444 ft | 159 kts | 173° |
| 2026-04-25 13:07 | 15.36475 | -61.24927 | 4447 ft | 157 kts | 172° |
| 2026-04-25 13:07 | 15.35388 | -61.24843 | 4450 ft | 156 kts | 172° |
| 2026-04-25 13:07 | 15.34306 | -61.24760 | 4450 ft | 155 kts | 173° |
| 2026-04-25 13:07 | 15.33210 | -61.24674 | 4457 ft | 161 kts | 172° |
| 2026-04-25 13:08 | 15.32064 | -61.24587 | 4457 ft | 169 kts | 173° |
| 2026-04-25 13:08 | 15.30883 | -61.24496 | 4439 ft | 169 kts | 173° |
| 2026-04-25 13:08 | 15.29731 | -61.24415 | 4443 ft | 163 kts | 173° |
| 2026-04-25 13:08 | 15.28618 | -61.24333 | 4448 ft | 157 kts | 173° |
| 2026-04-25 13:09 | 15.27537 | -61.24266 | 4446 ft | 155 kts | 175° |
| 2026-04-25 13:09 | 15.26465 | -61.24230 | 4447 ft | 153 kts | 174° |
| 2026-04-25 13:09 | 15.25407 | -61.24187 | 4452 ft | 151 kts | 174° |
| 2026-04-25 13:09 | 15.24355 | -61.24146 | 4450 ft | 151 kts | 174° |
| 2026-04-25 13:10 | 15.23310 | -61.24108 | 4454 ft | 150 kts | 174° |
| 2026-04-25 13:10 | 15.22268 | -61.24068 | 4456 ft | 150 kts | 174° |
| 2026-04-25 13:10 | 15.21224 | -61.24029 | 4453 ft | 150 kts | 175° |
| 2026-04-25 13:10 | 15.20181 | -61.23990 | 4461 ft | 150 kts | 175° |
| 2026-04-25 13:11 | 15.19138 | -61.23954 | 4460 ft | 150 kts | 175° |
| 2026-04-25 13:11 | 15.18090 | -61.23916 | 4459 ft | 151 kts | 175° |
| 2026-04-25 13:11 | 15.17035 | -61.23878 | 4465 ft | 152 kts | 174° |
| 2026-04-25 13:11 | 15.15975 | -61.23839 | 4465 ft | 153 kts | 174° |
| 2026-04-25 13:12 | 15.14910 | -61.23799 | 4466 ft | 153 kts | 175° |
| 2026-04-25 13:12 | 15.13860 | -61.23760 | 4465 ft | 153 kts | 175° |
| 2026-04-25 13:12 | 15.12792 | -61.23721 | 4467 ft | 154 kts | 175° |
| 2026-04-25 13:12 | 15.12071 | -61.23694 | 4470 ft | 153 kts | 175° |
| 2026-04-25 13:13 | 15.10659 | -61.23642 | 4471 ft | 154 kts | 175° |
| 2026-04-25 13:13 | 15.09591 | -61.23605 | 4469 ft | 153 kts | 175° |
| 2026-04-25 13:13 | 15.08522 | -61.23565 | 4474 ft | 154 kts | 175° |
| 2026-04-25 13:13 | 15.07450 | -61.23525 | 4472 ft | 154 kts | 175° |
| 2026-04-25 13:14 | 15.06382 | -61.23487 | 4475 ft | 153 kts | 175° |
| 2026-04-25 13:14 | 15.05318 | -61.23448 | 4477 ft | 153 kts | 175° |
| 2026-04-25 13:14 | 15.04255 | -61.23408 | 4473 ft | 153 kts | 175° |
| 2026-04-25 13:14 | 15.03195 | -61.23370 | 4478 ft | 152 kts | 175° |
| 2026-04-25 13:15 | 15.02140 | -61.23331 | 4478 ft | 152 kts | 175° |
| 2026-04-25 13:15 | 15.01086 | -61.23292 | 4479 ft | 152 kts | 175° |
| 2026-04-25 13:15 | 15.00029 | -61.23254 | 4480 ft | 152 kts | 175° |
| 2026-04-25 13:15 | 14.98970 | -61.23214 | 4479 ft | 153 kts | 175° |
| 2026-04-25 13:16 | 14.97906 | -61.23176 | 4482 ft | 153 kts | 175° |
| 2026-04-25 13:16 | 14.96841 | -61.23137 | 4482 ft | 153 kts | 175° |
| 2026-04-25 13:16 | 14.95776 | -61.23098 | 4478 ft | 153 kts | 175° |
| 2026-04-25 13:16 | 14.94711 | -61.23059 | 4480 ft | 153 kts | 175° |
| 2026-04-25 13:17 | 14.93647 | -61.23019 | 4481 ft | 153 kts | 175° |
| 2026-04-25 13:17 | 14.92585 | -61.22981 | 4482 ft | 153 kts | 175° |
| 2026-04-25 13:17 | 14.91520 | -61.22942 | 4479 ft | 153 kts | 175° |
| 2026-04-25 13:17 | 14.90470 | -61.22904 | 4476 ft | 153 kts | 175° |
| 2026-04-25 13:18 | 14.89405 | -61.22864 | 4481 ft | 153 kts | 175° |
| 2026-04-25 13:18 | 14.88338 | -61.22825 | 4479 ft | 153 kts | 175° |
| 2026-04-25 13:18 | 14.87272 | -61.22786 | 4477 ft | 153 kts | 175° |
| 2026-04-25 13:18 | 14.86208 | -61.22749 | 4480 ft | 153 kts | 175° |
| 2026-04-25 13:19 | 14.85144 | -61.22709 | 4479 ft | 153 kts | 175° |
| 2026-04-25 13:19 | 14.84079 | -61.22670 | 4476 ft | 153 kts | 175° |
| 2026-04-25 13:19 | 14.83018 | -61.22631 | 4479 ft | 153 kts | 175° |
| 2026-04-25 13:19 | 14.82314 | -61.22606 | 4478 ft | 153 kts | 175° |
| 2026-04-25 13:20 | 14.80904 | -61.22411 | 4493 ft | 155 kts | 165° |
| 2026-04-25 13:20 | 14.79833 | -61.22131 | 4489 ft | 162 kts | 163° |
| 2026-04-25 13:20 | 14.78723 | -61.21840 | 4479 ft | 166 kts | 164° |
| 2026-04-25 13:20 | 14.77619 | -61.21553 | 4473 ft | 161 kts | 163° |
| 2026-04-25 13:21 | 14.76545 | -61.21277 | 4471 ft | 158 kts | 164° |
| 2026-04-25 13:21 | 14.75488 | -61.21009 | 4470 ft | 155 kts | 164° |
| 2026-04-25 13:21 | 14.74445 | -61.20747 | 4470 ft | 154 kts | 163° |
| 2026-04-25 13:21 | 14.73408 | -61.20485 | 4470 ft | 153 kts | 164° |
| 2026-04-25 13:22 | 14.72380 | -61.20224 | 4468 ft | 152 kts | 164° |
| 2026-04-25 13:22 | 14.71352 | -61.19966 | 4469 ft | 151 kts | 164° |
| 2026-04-25 13:22 | 14.70329 | -61.19709 | 4471 ft | 151 kts | 164° |
| 2026-04-25 13:23 | 14.68277 | -61.19189 | 4468 ft | 151 kts | 164° |
| 2026-04-25 13:23 | 14.67254 | -61.18933 | 4472 ft | 152 kts | 163° |
| 2026-04-25 13:23 | 14.66230 | -61.18672 | 4465 ft | 152 kts | 163° |
| 2026-04-25 13:23 | 14.65211 | -61.18399 | 4470 ft | 151 kts | 163° |
| 2026-04-25 13:24 | 14.64195 | -61.18131 | 4465 ft | 151 kts | 163° |
| 2026-04-25 13:24 | 14.63178 | -61.17861 | 4466 ft | 151 kts | 163° |
| 2026-04-25 13:24 | 14.62164 | -61.17595 | 4466 ft | 151 kts | 163° |
| 2026-04-25 13:24 | 14.61159 | -61.17331 | 4466 ft | 151 kts | 163° |
| 2026-04-25 13:25 | 14.60139 | -61.17062 | 4465 ft | 151 kts | 163° |
| 2026-04-25 13:25 | 14.59126 | -61.16795 | 4466 ft | 150 kts | 163° |
| 2026-04-25 13:25 | 14.58108 | -61.16528 | 4464 ft | 151 kts | 163° |
| 2026-04-25 13:25 | 14.57088 | -61.16260 | 4465 ft | 151 kts | 163° |
| 2026-04-25 13:26 | 14.56067 | -61.15992 | 4466 ft | 152 kts | 163° |
| 2026-04-25 13:26 | 14.55044 | -61.15723 | 4465 ft | 152 kts | 163° |
| 2026-04-25 13:26 | 14.54022 | -61.15454 | 4468 ft | 151 kts | 163° |
| 2026-04-25 13:26 | 14.53006 | -61.15188 | 4464 ft | 151 kts | 163° |
| 2026-04-25 13:27 | 14.51991 | -61.14921 | 4463 ft | 150 kts | 162° |
| 2026-04-25 13:27 | 14.50981 | -61.14655 | 4464 ft | 150 kts | 163° |
| 2026-04-25 13:27 | 14.49971 | -61.14388 | 4464 ft | 150 kts | 163° |
| 2026-04-25 13:27 | 14.48960 | -61.14124 | 4461 ft | 150 kts | 163° |
| 2026-04-25 13:28 | 14.47950 | -61.13859 | 4463 ft | 150 kts | 163° |
| 2026-04-25 13:28 | 14.47610 | -61.13769 | 4463 ft | 150 kts | 163° |
| 2026-04-25 13:28 | 14.45936 | -61.13329 | 4462 ft | 149 kts | 163° |
| 2026-04-25 13:28 | 14.44927 | -61.13063 | 4462 ft | 150 kts | 163° |
| 2026-04-25 13:29 | 14.43919 | -61.12800 | 4461 ft | 149 kts | 163° |
| 2026-04-25 13:29 | 14.42915 | -61.12537 | 4460 ft | 149 kts | 163° |
| 2026-04-25 13:29 | 14.41913 | -61.12273 | 4461 ft | 149 kts | 163° |
| 2026-04-25 13:30 | 14.39906 | -61.11745 | 4461 ft | 149 kts | 162° |
| 2026-04-25 13:30 | 14.38902 | -61.11484 | 4462 ft | 149 kts | 162° |
| 2026-04-25 13:30 | 14.37901 | -61.11220 | 4460 ft | 148 kts | 163° |
| 2026-04-25 13:31 | 14.35902 | -61.10696 | 4461 ft | 148 kts | 163° |
| 2026-04-25 13:31 | 14.34902 | -61.10431 | 4462 ft | 149 kts | 163° |
| 2026-04-25 13:31 | 14.33893 | -61.10166 | 4462 ft | 150 kts | 163° |
| 2026-04-25 13:31 | 14.32891 | -61.09904 | 4463 ft | 150 kts | 163° |
| 2026-04-25 13:32 | 14.31876 | -61.09637 | 4467 ft | 151 kts | 163° |
| 2026-04-25 13:32 | 14.30846 | -61.09370 | 4464 ft | 151 kts | 163° |
| 2026-04-25 13:32 | 14.29844 | -61.09107 | 4465 ft | 151 kts | 163° |
| 2026-04-25 13:32 | 14.28828 | -61.08839 | 4463 ft | 151 kts | 163° |
| 2026-04-25 13:33 | 14.27810 | -61.08572 | 4465 ft | 151 kts | 163° |
| 2026-04-25 13:33 | 14.26794 | -61.08307 | 4464 ft | 150 kts | 163° |
| 2026-04-25 13:33 | 14.25781 | -61.08040 | 4465 ft | 151 kts | 163° |
| 2026-04-25 13:33 | 14.25095 | -61.07859 | 4465 ft | 151 kts | 163° |
| 2026-04-25 13:34 | 14.23747 | -61.07508 | 4463 ft | 150 kts | 163° |
| 2026-04-25 13:34 | 14.22733 | -61.07242 | 4467 ft | 151 kts | 163° |
| 2026-04-25 13:34 | 14.21716 | -61.06974 | 4467 ft | 151 kts | 163° |
| 2026-04-25 13:34 | 14.20701 | -61.06708 | 4465 ft | 150 kts | 163° |
| 2026-04-25 13:35 | 14.19689 | -61.06443 | 4463 ft | 150 kts | 163° |
| 2026-04-25 13:35 | 14.18677 | -61.06179 | 4465 ft | 150 kts | 163° |
| 2026-04-25 13:35 | 14.17668 | -61.05915 | 4466 ft | 149 kts | 163° |
| 2026-04-25 13:35 | 14.16661 | -61.05651 | 4466 ft | 149 kts | 162° |
| 2026-04-25 13:36 | 14.15656 | -61.05387 | 4465 ft | 149 kts | 163° |
| 2026-04-25 13:36 | 14.14653 | -61.05123 | 4465 ft | 149 kts | 163° |
| 2026-04-25 13:36 | 14.13650 | -61.04863 | 4466 ft | 148 kts | 163° |
| 2026-04-25 13:36 | 14.12652 | -61.04601 | 4466 ft | 148 kts | 163° |
| 2026-04-25 13:37 | 14.11648 | -61.04337 | 4468 ft | 149 kts | 163° |
| 2026-04-25 13:37 | 14.10646 | -61.04075 | 4468 ft | 148 kts | 163° |
| 2026-04-25 13:37 | 14.09646 | -61.03813 | 4468 ft | 149 kts | 163° |
| 2026-04-25 13:37 | 14.08643 | -61.03551 | 4469 ft | 149 kts | 162° |
| 2026-04-25 13:38 | 14.07640 | -61.03290 | 4469 ft | 149 kts | 162° |
| 2026-04-25 13:38 | 14.06636 | -61.03025 | 4468 ft | 149 kts | 163° |
| 2026-04-25 13:38 | 14.05645 | -61.02764 | 4466 ft | 149 kts | 163° |
| 2026-04-25 13:38 | 14.04636 | -61.02502 | 4468 ft | 149 kts | 163° |
| 2026-04-25 13:39 | 14.03628 | -61.02246 | 4470 ft | 149 kts | 165° |
| 2026-04-25 13:39 | 14.02587 | -61.02234 | 4465 ft | 153 kts | 186° |
| 2026-04-25 13:39 | 14.01546 | -61.02471 | 4469 ft | 154 kts | 188° |
| 2026-04-25 13:39 | 14.00498 | -61.02697 | 4468 ft | 154 kts | 187° |
| 2026-04-25 13:40 | 13.99449 | -61.02906 | 4467 ft | 154 kts | 186° |
| 2026-04-25 13:40 | 13.98396 | -61.03111 | 4467 ft | 154 kts | 186° |
| 2026-04-25 13:40 | 13.97346 | -61.03316 | 4469 ft | 154 kts | 187° |
| 2026-04-25 13:40 | 13.96295 | -61.03525 | 4466 ft | 154 kts | 187° |
| 2026-04-25 13:41 | 13.95247 | -61.03737 | 4465 ft | 153 kts | 187° |
| 2026-04-25 13:41 | 13.94201 | -61.03946 | 4469 ft | 153 kts | 187° |
| 2026-04-25 13:41 | 13.93154 | -61.04152 | 4469 ft | 153 kts | 187° |
| 2026-04-25 13:41 | 13.92106 | -61.04363 | 4463 ft | 153 kts | 187° |
| 2026-04-25 13:42 | 13.91065 | -61.04571 | 4467 ft | 152 kts | 187° |
| 2026-04-25 13:42 | 13.90023 | -61.04778 | 4462 ft | 152 kts | 187° |
| 2026-04-25 13:42 | 13.88990 | -61.04985 | 4465 ft | 151 kts | 187° |
| 2026-04-25 13:42 | 13.87957 | -61.05190 | 4467 ft | 151 kts | 187° |
| 2026-04-25 13:43 | 13.86925 | -61.05398 | 4465 ft | 151 kts | 187° |
| 2026-04-25 13:43 | 13.85889 | -61.05606 | 4475 ft | 153 kts | 187° |
| 2026-04-25 13:43 | 13.84830 | -61.05814 | 4476 ft | 157 kts | 187° |
| 2026-04-25 13:43 | 13.83761 | -61.06029 | 4470 ft | 155 kts | 187° |
| 2026-04-25 13:44 | 13.82700 | -61.06239 | 4476 ft | 158 kts | 187° |
| 2026-04-25 13:44 | 13.81617 | -61.06455 | 4472 ft | 158 kts | 187° |
| 2026-04-25 13:44 | 13.80525 | -61.06668 | 4467 ft | 162 kts | 187° |
| 2026-04-25 13:44 | 13.79425 | -61.06897 | 4464 ft | 160 kts | 189° |
| 2026-04-25 13:45 | 13.78364 | -61.07256 | 4464 ft | 160 kts | 195° |
| 2026-04-25 13:45 | 13.77323 | -61.07646 | 4465 ft | 158 kts | 195° |
| 2026-04-25 13:45 | 13.76285 | -61.08026 | 4462 ft | 158 kts | 195° |
| 2026-04-25 13:45 | 13.75252 | -61.08398 | 4464 ft | 157 kts | 195° |
| 2026-04-25 13:46 | 13.74234 | -61.08763 | 4463 ft | 156 kts | 195° |
| 2026-04-25 13:46 | 13.73209 | -61.09131 | 4459 ft | 156 kts | 195° |
| 2026-04-25 13:46 | 13.72186 | -61.09499 | 4460 ft | 156 kts | 195° |
| 2026-04-25 13:46 | 13.71161 | -61.09868 | 4463 ft | 156 kts | 195° |
| 2026-04-25 13:47 | 13.70140 | -61.10235 | 4464 ft | 155 kts | 195° |
| 2026-04-25 13:47 | 13.69119 | -61.10602 | 4464 ft | 156 kts | 195° |
| 2026-04-25 13:47 | 13.68096 | -61.10970 | 4461 ft | 156 kts | 195° |
| 2026-04-25 13:47 | 13.67075 | -61.11337 | 4462 ft | 155 kts | 195° |
| 2026-04-25 13:48 | 13.66054 | -61.11704 | 4457 ft | 155 kts | 195° |
| 2026-04-25 13:48 | 13.65378 | -61.11947 | 4462 ft | 155 kts | 195° |
| 2026-04-25 13:48 | 13.64014 | -61.12438 | 4459 ft | 155 kts | 195° |
| 2026-04-25 13:48 | 13.63340 | -61.12680 | 4461 ft | 155 kts | 195° |
| 2026-04-25 13:49 | 13.61973 | -61.13171 | 4460 ft | 156 kts | 195° |
| 2026-04-25 13:49 | 13.61295 | -61.13415 | 4459 ft | 156 kts | 195° |
| 2026-04-25 13:49 | 13.60270 | -61.13783 | 4461 ft | 156 kts | 195° |
| 2026-04-25 13:49 | 13.59243 | -61.14150 | 4462 ft | 156 kts | 195° |
| 2026-04-25 13:50 | 13.58216 | -61.14518 | 4462 ft | 156 kts | 195° |
| 2026-04-25 13:50 | 13.57189 | -61.14889 | 4458 ft | 156 kts | 195° |
| 2026-04-25 13:50 | 13.56163 | -61.15258 | 4456 ft | 157 kts | 195° |
| 2026-04-25 13:50 | 13.55134 | -61.15628 | 4458 ft | 156 kts | 195° |
| 2026-04-25 13:51 | 13.54107 | -61.15996 | 4456 ft | 156 kts | 195° |
| 2026-04-25 13:51 | 13.53080 | -61.16365 | 4455 ft | 156 kts | 195° |
| 2026-04-25 13:51 | 13.52053 | -61.16732 | 4451 ft | 156 kts | 195° |
| 2026-04-25 13:51 | 13.51027 | -61.17102 | 4449 ft | 156 kts | 195° |
| 2026-04-25 13:52 | 13.50004 | -61.17469 | 4448 ft | 155 kts | 195° |
| 2026-04-25 13:52 | 13.48986 | -61.17835 | 4449 ft | 155 kts | 195° |
| 2026-04-25 13:52 | 13.47968 | -61.18201 | 4448 ft | 155 kts | 195° |
| 2026-04-25 13:52 | 13.46950 | -61.18565 | 4449 ft | 155 kts | 195° |
| 2026-04-25 13:53 | 13.45931 | -61.18932 | 4450 ft | 155 kts | 195° |
| 2026-04-25 13:53 | 13.44912 | -61.19296 | 4450 ft | 155 kts | 194° |
| 2026-04-25 13:53 | 13.43891 | -61.19662 | 4451 ft | 156 kts | 195° |
| 2026-04-25 13:53 | 13.42867 | -61.20030 | 4453 ft | 156 kts | 195° |
| 2026-04-25 13:54 | 13.41844 | -61.20397 | 4453 ft | 156 kts | 195° |
| 2026-04-25 13:54 | 13.40818 | -61.20764 | 4453 ft | 156 kts | 194° |
| 2026-04-25 13:54 | 13.39794 | -61.21132 | 4454 ft | 156 kts | 195° |
| 2026-04-25 13:54 | 13.38766 | -61.21500 | 4454 ft | 156 kts | 195° |
| 2026-04-25 13:55 | 13.37742 | -61.21867 | 4457 ft | 156 kts | 195° |
| 2026-04-25 13:55 | 13.36715 | -61.22235 | 4455 ft | 156 kts | 195° |
| 2026-04-25 13:55 | 13.35692 | -61.22602 | 4457 ft | 155 kts | 195° |
| 2026-04-25 13:55 | 13.34675 | -61.22966 | 4456 ft | 155 kts | 195° |
| 2026-04-25 13:56 | 13.33653 | -61.23333 | 4457 ft | 155 kts | 195° |
| 2026-04-25 13:56 | 13.32616 | -61.23617 | 4457 ft | 154 kts | 189° |
| 2026-04-25 13:56 | 13.31572 | -61.23859 | 4459 ft | 154 kts | 189° |
| 2026-04-25 13:56 | 13.30524 | -61.24096 | 4461 ft | 154 kts | 189° |
| 2026-04-25 13:57 | 13.29477 | -61.24337 | 4463 ft | 154 kts | 189° |
| 2026-04-25 13:57 | 13.28786 | -61.24499 | 4463 ft | 154 kts | 189° |
| 2026-04-25 13:57 | 13.27394 | -61.24825 | 4463 ft | 155 kts | 189° |
| 2026-04-25 13:57 | 13.26347 | -61.25072 | 4465 ft | 153 kts | 189° |
| 2026-04-25 13:58 | 13.25302 | -61.25317 | 4467 ft | 155 kts | 189° |
| 2026-04-25 13:58 | 13.24255 | -61.25565 | 4472 ft | 154 kts | 189° |
| 2026-04-25 13:58 | 13.23195 | -61.25815 | 4462 ft | 156 kts | 189° |
| 2026-04-25 13:58 | 13.22130 | -61.26066 | 4472 ft | 155 kts | 188° |
| 2026-04-25 13:59 | 13.21080 | -61.26313 | 4470 ft | 155 kts | 189° |
| 2026-04-25 13:59 | 13.20017 | -61.26561 | 4470 ft | 159 kts | 189° |
| 2026-04-25 13:59 | 13.18951 | -61.26811 | 4469 ft | 159 kts | 189° |
| 2026-04-25 13:59 | 13.17873 | -61.27065 | 4465 ft | 158 kts | 189° |
| 2026-04-25 14:00 | 13.16800 | -61.27318 | 4467 ft | 158 kts | 189° |
| 2026-04-25 14:00 | 13.15727 | -61.27569 | 4466 ft | 158 kts | 189° |
| 2026-04-25 14:00 | 13.14652 | -61.27823 | 4465 ft | 159 kts | 189° |
| 2026-04-25 14:00 | 13.13574 | -61.28077 | 4465 ft | 159 kts | 189° |
| 2026-04-25 14:01 | 13.12498 | -61.28329 | 4466 ft | 159 kts | 189° |
| 2026-04-25 14:01 | 13.11417 | -61.28582 | 4467 ft | 160 kts | 189° |
| 2026-04-25 14:01 | 13.10334 | -61.28837 | 4464 ft | 160 kts | 189° |
| 2026-04-25 14:01 | 13.09252 | -61.29092 | 4464 ft | 159 kts | 189° |
| 2026-04-25 14:02 | 13.08171 | -61.29346 | 4465 ft | 159 kts | 189° |
| 2026-04-25 14:02 | 13.07092 | -61.29600 | 4465 ft | 159 kts | 189° |
| 2026-04-25 14:02 | 13.06010 | -61.29855 | 4459 ft | 159 kts | 189° |
| 2026-04-25 14:02 | 13.05294 | -61.30023 | 4459 ft | 159 kts | 189° |
| 2026-04-25 14:03 | 13.03846 | -61.30362 | 4457 ft | 159 kts | 189° |
| 2026-04-25 14:03 | 13.03130 | -61.30530 | 4460 ft | 160 kts | 189° |
| 2026-04-25 14:03 | 13.01677 | -61.30871 | 4467 ft | 160 kts | 189° |
| 2026-04-25 14:03 | 13.00591 | -61.31126 | 4467 ft | 160 kts | 189° |
| 2026-04-25 14:04 | 12.99505 | -61.31381 | 4465 ft | 160 kts | 189° |
| 2026-04-25 14:04 | 12.98419 | -61.31638 | 4463 ft | 160 kts | 189° |
| 2026-04-25 14:04 | 12.97332 | -61.31892 | 4462 ft | 160 kts | 189° |
| 2026-04-25 14:04 | 12.96247 | -61.32146 | 4464 ft | 160 kts | 189° |
| 2026-04-25 14:05 | 12.95162 | -61.32400 | 4463 ft | 160 kts | 189° |
| 2026-04-25 14:05 | 12.94076 | -61.32656 | 4464 ft | 160 kts | 189° |
| 2026-04-25 14:05 | 12.93004 | -61.32908 | 4465 ft | 160 kts | 189° |
| 2026-04-25 14:05 | 12.91918 | -61.33161 | 4467 ft | 160 kts | 189° |
| 2026-04-25 14:06 | 12.90831 | -61.33417 | 4466 ft | 160 kts | 189° |
| 2026-04-25 14:06 | 12.89745 | -61.33673 | 4466 ft | 160 kts | 189° |
| 2026-04-25 14:06 | 12.88661 | -61.33927 | 4463 ft | 160 kts | 189° |
| 2026-04-25 14:06 | 12.87579 | -61.34179 | 4463 ft | 159 kts | 189° |
| 2026-04-25 14:07 | 12.86493 | -61.34435 | 4462 ft | 160 kts | 189° |
| 2026-04-25 14:07 | 12.85406 | -61.34689 | 4461 ft | 160 kts | 189° |
| 2026-04-25 14:07 | 12.84319 | -61.34945 | 4460 ft | 160 kts | 189° |
| 2026-04-25 14:07 | 12.83232 | -61.35201 | 4462 ft | 160 kts | 189° |
| 2026-04-25 14:08 | 12.82144 | -61.35456 | 4461 ft | 160 kts | 189° |
| 2026-04-25 14:08 | 12.81057 | -61.35712 | 4459 ft | 160 kts | 189° |
| 2026-04-25 14:08 | 12.79970 | -61.35965 | 4459 ft | 160 kts | 189° |
| 2026-04-25 14:08 | 12.78885 | -61.36219 | 4458 ft | 160 kts | 189° |
| 2026-04-25 14:09 | 12.77802 | -61.36473 | 4454 ft | 160 kts | 189° |
| 2026-04-25 14:09 | 12.76719 | -61.36727 | 4463 ft | 160 kts | 189° |
| 2026-04-25 14:09 | 12.75632 | -61.36981 | 4462 ft | 160 kts | 189° |
| 2026-04-25 14:09 | 12.75280 | -61.37063 | 4456 ft | 160 kts | 189° |
| 2026-04-25 14:10 | 12.73461 | -61.37489 | 4458 ft | 160 kts | 189° |
| 2026-04-25 14:10 | 12.72376 | -61.37744 | 4460 ft | 160 kts | 189° |
| 2026-04-25 14:10 | 12.71292 | -61.37998 | 4458 ft | 160 kts | 189° |
| 2026-04-25 14:10 | 12.70208 | -61.38251 | 4458 ft | 160 kts | 189° |
| 2026-04-25 14:11 | 12.69125 | -61.38505 | 4460 ft | 160 kts | 189° |
| 2026-04-25 14:11 | 12.68053 | -61.38756 | 4458 ft | 160 kts | 189° |
| 2026-04-25 14:11 | 12.66955 | -61.39015 | 4455 ft | 159 kts | 189° |
| 2026-04-25 14:11 | 12.65888 | -61.39263 | 4456 ft | 159 kts | 189° |
| 2026-04-25 14:12 | 12.64837 | -61.39634 | 4451 ft | 162 kts | 208° |
| 2026-04-25 14:12 | 12.63965 | -61.40382 | 4457 ft | 164 kts | 219° |
| 2026-04-25 14:12 | 12.63109 | -61.41156 | 4457 ft | 164 kts | 216° |
| 2026-04-25 14:12 | 12.62225 | -61.41900 | 4455 ft | 165 kts | 215° |
| 2026-04-25 14:13 | 12.61338 | -61.42645 | 4454 ft | 165 kts | 216° |
| 2026-04-25 14:13 | 12.60458 | -61.43398 | 4456 ft | 165 kts | 216° |
| 2026-04-25 14:13 | 12.59559 | -61.44171 | 4454 ft | 172 kts | 216° |
| 2026-04-25 14:13 | 12.58618 | -61.44985 | 4460 ft | 183 kts | 216° |
| 2026-04-25 14:14 | 12.57652 | -61.45823 | 4451 ft | 179 kts | 217° |
| 2026-04-25 14:14 | 12.56717 | -61.46634 | 4447 ft | 174 kts | 216° |
| 2026-04-25 14:14 | 12.55803 | -61.47422 | 4446 ft | 170 kts | 216° |
| 2026-04-25 14:14 | 12.54905 | -61.48198 | 4447 ft | 168 kts | 216° |
| 2026-04-25 14:15 | 12.54016 | -61.48964 | 4444 ft | 166 kts | 216° |
| 2026-04-25 14:15 | 12.53717 | -61.49222 | 4446 ft | 166 kts | 216° |
| 2026-04-25 14:15 | 12.52253 | -61.50486 | 4447 ft | 165 kts | 216° |
| 2026-04-25 14:15 | 12.51376 | -61.51245 | 4446 ft | 165 kts | 216° |
| 2026-04-25 14:16 | 12.50502 | -61.52000 | 4442 ft | 164 kts | 216° |
| 2026-04-25 14:16 | 12.49631 | -61.52751 | 4444 ft | 164 kts | 216° |
| 2026-04-25 14:16 | 12.48759 | -61.53503 | 4443 ft | 163 kts | 216° |
| 2026-04-25 14:16 | 12.47891 | -61.54254 | 4442 ft | 164 kts | 216° |
| 2026-04-25 14:17 | 12.47019 | -61.55006 | 4446 ft | 164 kts | 216° |
| 2026-04-25 14:17 | 12.46146 | -61.55759 | 4442 ft | 164 kts | 216° |
| 2026-04-25 14:17 | 12.45283 | -61.56528 | 4443 ft | 165 kts | 221° |
| 2026-04-25 14:17 | 12.44506 | -61.57401 | 4444 ft | 166 kts | 225° |
| 2026-04-25 14:18 | 12.43751 | -61.58304 | 4443 ft | 167 kts | 225° |
| 2026-04-25 14:18 | 12.42998 | -61.59203 | 4440 ft | 166 kts | 225° |
| 2026-04-25 14:18 | 12.42240 | -61.60097 | 4442 ft | 166 kts | 224° |
| 2026-04-25 14:18 | 12.41485 | -61.60974 | 4441 ft | 166 kts | 224° |
| 2026-04-25 14:19 | 12.40721 | -61.61863 | 4441 ft | 166 kts | 225° |
| 2026-04-25 14:19 | 12.39958 | -61.62753 | 4445 ft | 166 kts | 225° |
| 2026-04-25 14:19 | 12.39195 | -61.63641 | 4444 ft | 166 kts | 225° |
| 2026-04-25 14:19 | 12.38433 | -61.64528 | 4440 ft | 166 kts | 225° |
| 2026-04-25 14:20 | 12.37674 | -61.65413 | 4442 ft | 166 kts | 225° |
| 2026-04-25 14:20 | 12.37418 | -61.65712 | 4442 ft | 166 kts | 225° |
| 2026-04-25 14:20 | 12.36152 | -61.67186 | 4442 ft | 166 kts | 225° |
| 2026-04-25 14:20 | 12.35391 | -61.68073 | 4442 ft | 166 kts | 225° |
| 2026-04-25 14:21 | 12.34628 | -61.68960 | 4442 ft | 166 kts | 224° |
| 2026-04-25 14:21 | 12.33868 | -61.69847 | 4444 ft | 166 kts | 225° |
| 2026-04-25 14:21 | 12.33106 | -61.70733 | 4443 ft | 166 kts | 225° |
| 2026-04-25 14:21 | 12.32346 | -61.71618 | 4446 ft | 166 kts | 224° |
| 2026-04-25 14:22 | 12.31585 | -61.72505 | 4447 ft | 166 kts | 225° |
| 2026-04-25 14:22 | 12.30824 | -61.73390 | 4449 ft | 166 kts | 224° |
| 2026-04-25 14:22 | 12.30058 | -61.74281 | 4449 ft | 167 kts | 224° |
| 2026-04-25 14:22 | 12.29294 | -61.75170 | 4451 ft | 166 kts | 224° |
| 2026-04-25 14:23 | 12.28531 | -61.76057 | 4446 ft | 166 kts | 224° |
| 2026-04-25 14:23 | 12.27769 | -61.76945 | 4448 ft | 166 kts | 225° |
| 2026-04-25 14:23 | 12.27007 | -61.77828 | 4447 ft | 166 kts | 224° |
| 2026-04-25 14:23 | 12.26248 | -61.78714 | 4448 ft | 166 kts | 225° |
| 2026-04-25 14:24 | 12.25486 | -61.79598 | 4449 ft | 165 kts | 225° |
| 2026-04-25 14:24 | 12.24726 | -61.80482 | 4452 ft | 165 kts | 225° |
| 2026-04-25 14:24 | 12.23967 | -61.81364 | 4454 ft | 165 kts | 225° |
| 2026-04-25 14:24 | 12.23210 | -61.82251 | 4451 ft | 165 kts | 225° |
| 2026-04-25 14:25 | 12.22452 | -61.83134 | 4453 ft | 165 kts | 225° |
| 2026-04-25 14:25 | 12.21692 | -61.84019 | 4456 ft | 166 kts | 225° |
| 2026-04-25 14:25 | 12.20933 | -61.84905 | 4457 ft | 166 kts | 225° |
| 2026-04-25 14:25 | 12.20673 | -61.85206 | 4458 ft | 166 kts | 225° |
| 2026-04-25 14:26 | 12.19406 | -61.86683 | 4460 ft | 166 kts | 225° |
| 2026-04-25 14:26 | 12.18644 | -61.87569 | 4455 ft | 166 kts | 225° |
| 2026-04-25 14:26 | 12.17884 | -61.88456 | 4459 ft | 166 kts | 225° |
| 2026-04-25 14:26 | 12.17122 | -61.89344 | 4459 ft | 166 kts | 224° |
| 2026-04-25 14:27 | 12.16358 | -61.90234 | 4458 ft | 167 kts | 224° |
| 2026-04-25 14:27 | 12.15592 | -61.91123 | 4459 ft | 166 kts | 225° |
| 2026-04-25 14:27 | 12.14826 | -61.92011 | 4461 ft | 166 kts | 225° |
| 2026-04-25 14:27 | 12.14064 | -61.92900 | 4458 ft | 166 kts | 225° |
| 2026-04-25 14:28 | 12.13303 | -61.93787 | 4457 ft | 166 kts | 225° |
| 2026-04-25 14:28 | 12.12541 | -61.94673 | 4458 ft | 166 kts | 225° |
| 2026-04-25 14:28 | 12.11790 | -61.95546 | 4457 ft | 166 kts | 225° |
| 2026-04-25 14:28 | 12.11008 | -61.96405 | 4456 ft | 164 kts | 216° |
| 2026-04-25 14:29 | 12.10010 | -61.96910 | 4458 ft | 159 kts | 192° |
| 2026-04-25 14:29 | 12.08921 | -61.97027 | 4459 ft | 157 kts | 176° |
| 2026-04-25 14:29 | 12.07831 | -61.97006 | 4461 ft | 156 kts | 177° |
| 2026-04-25 14:29 | 12.06741 | -61.97004 | 4461 ft | 157 kts | 178° |
| 2026-04-25 14:30 | 12.05647 | -61.97017 | 4463 ft | 157 kts | 178° |
| 2026-04-25 14:30 | 12.03455 | -61.97037 | 4464 ft | 157 kts | 177° |
| 2026-04-25 14:30 | 12.02719 | -61.96986 | 4459 ft | 156 kts | 166° |
| 2026-04-25 14:31 | 12.01735 | -61.96554 | 4464 ft | 154 kts | 146° |
| 2026-04-25 14:31 | 12.00977 | -61.95809 | 4468 ft | 155 kts | 126° |
| 2026-04-25 14:31 | 12.00536 | -61.94805 | 4468 ft | 157 kts | 105° |
| 2026-04-25 14:31 | 12.00468 | -61.93690 | 4470 ft | 158 kts | 91° |
| 2026-04-25 14:32 | 12.00497 | -61.92568 | 4471 ft | 158 kts | 92° |
| 2026-04-25 14:32 | 12.00494 | -61.91449 | 4472 ft | 158 kts | 94° |
| 2026-04-25 14:32 | 12.00540 | -61.90332 | 4471 ft | 160 kts | 77° |
| 2026-04-25 14:32 | 12.01246 | -61.89457 | 4469 ft | 168 kts | 30° |
| 2026-04-25 14:33 | 12.02409 | -61.89259 | 4474 ft | 172 kts | 2° |
| 2026-04-25 14:33 | 12.03607 | -61.89278 | 4477 ft | 172 kts | 1° |
| 2026-04-25 14:33 | 12.04807 | -61.89284 | 4474 ft | 172 kts | 2° |
| 2026-04-25 14:33 | 12.06004 | -61.89282 | 4477 ft | 172 kts | 2° |
| 2026-04-25 14:34 | 12.07204 | -61.89279 | 4476 ft | 173 kts | 2° |
| 2026-04-25 14:34 | 12.08406 | -61.89313 | 4476 ft | 173 kts | 360° |
| 2026-04-25 14:34 | 12.09608 | -61.89362 | 4471 ft | 173 kts | 360° |
| 2026-04-25 14:34 | 12.10810 | -61.89416 | 4475 ft | 173 kts | 360° |
| 2026-04-25 14:35 | 12.12016 | -61.89472 | 4474 ft | 173 kts | 360° |
| 2026-04-25 14:35 | 12.13225 | -61.89528 | 4474 ft | 174 kts | 359° |
| 2026-04-25 14:35 | 12.14437 | -61.89585 | 4472 ft | 175 kts | 360° |
| 2026-04-25 14:35 | 12.15652 | -61.89641 | 4469 ft | 175 kts | 360° |
| 2026-04-25 14:36 | 12.16854 | -61.89701 | 4469 ft | 175 kts | 360° |
| 2026-04-25 14:36 | 12.18070 | -61.89767 | 4471 ft | 175 kts | 360° |
| 2026-04-25 14:36 | 12.19290 | -61.89828 | 4469 ft | 175 kts | 360° |
| 2026-04-25 14:36 | 12.20508 | -61.89888 | 4470 ft | 175 kts | 359° |
| 2026-04-25 14:37 | 12.21725 | -61.89945 | 4468 ft | 175 kts | 359° |
| 2026-04-25 14:37 | 12.22941 | -61.89997 | 4466 ft | 175 kts | 360° |
| 2026-04-25 14:37 | 12.24157 | -61.90053 | 4464 ft | 175 kts | 359° |
| 2026-04-25 14:37 | 12.25375 | -61.90106 | 4466 ft | 175 kts | 0° |
| 2026-04-25 14:38 | 12.26591 | -61.90161 | 4464 ft | 175 kts | 360° |
| 2026-04-25 14:38 | 12.27809 | -61.90216 | 4463 ft | 175 kts | 360° |
| 2026-04-25 14:38 | 12.29022 | -61.90271 | 4463 ft | 174 kts | 359° |
| 2026-04-25 14:38 | 12.30230 | -61.90322 | 4460 ft | 173 kts | 360° |
| 2026-04-25 14:39 | 12.31435 | -61.90374 | 4463 ft | 173 kts | 360° |
| 2026-04-25 14:39 | 12.32640 | -61.90430 | 4460 ft | 173 kts | 359° |
| 2026-04-25 14:39 | 12.33843 | -61.90480 | 4461 ft | 173 kts | 0° |
| 2026-04-25 14:39 | 12.35044 | -61.90534 | 4456 ft | 173 kts | 360° |
| 2026-04-25 14:40 | 12.36244 | -61.90591 | 4457 ft | 173 kts | 360° |
| 2026-04-25 14:40 | 12.37447 | -61.90647 | 4456 ft | 173 kts | 0° |
| 2026-04-25 14:40 | 12.38651 | -61.90708 | 4459 ft | 173 kts | 359° |
| 2026-04-25 14:40 | 12.39854 | -61.90768 | 4459 ft | 173 kts | 360° |
| 2026-04-25 14:41 | 12.41058 | -61.90827 | 4457 ft | 173 kts | 360° |
| 2026-04-25 14:41 | 12.42264 | -61.90891 | 4457 ft | 174 kts | 359° |
| 2026-04-25 14:41 | 12.43472 | -61.90954 | 4456 ft | 174 kts | 360° |
| 2026-04-25 14:41 | 12.44681 | -61.91016 | 4457 ft | 175 kts | 360° |
| 2026-04-25 14:42 | 12.45898 | -61.91078 | 4457 ft | 175 kts | 360° |
| 2026-04-25 14:42 | 12.46706 | -61.91122 | 4462 ft | 176 kts | 359° |
| 2026-04-25 14:42 | 12.48335 | -61.91202 | 4460 ft | 175 kts | 0° |
| 2026-04-25 14:42 | 12.49553 | -61.91265 | 4460 ft | 175 kts | 360° |
| 2026-04-25 14:43 | 12.50769 | -61.91327 | 4456 ft | 175 kts | 360° |
| 2026-04-25 14:43 | 12.51985 | -61.91387 | 4461 ft | 175 kts | 360° |
| 2026-04-25 14:43 | 12.53201 | -61.91445 | 4457 ft | 175 kts | 360° |
| 2026-04-25 14:43 | 12.54421 | -61.91504 | 4458 ft | 176 kts | 359° |
| 2026-04-25 14:44 | 12.55643 | -61.91557 | 4461 ft | 176 kts | 0° |
| 2026-04-25 14:44 | 12.56864 | -61.91617 | 4462 ft | 176 kts | 360° |
| 2026-04-25 14:44 | 12.58086 | -61.91675 | 4460 ft | 176 kts | 360° |
| 2026-04-25 14:44 | 12.59291 | -61.91734 | 4464 ft | 175 kts | 360° |
| 2026-04-25 14:45 | 12.60509 | -61.91795 | 4460 ft | 175 kts | 360° |
| 2026-04-25 14:45 | 12.61723 | -61.91856 | 4463 ft | 174 kts | 360° |
| 2026-04-25 14:45 | 12.62934 | -61.91913 | 4462 ft | 174 kts | 360° |
| 2026-04-25 14:45 | 12.64148 | -61.91974 | 4464 ft | 175 kts | 360° |
| 2026-04-25 14:46 | 12.65361 | -61.92036 | 4462 ft | 175 kts | 360° |
| 2026-04-25 14:46 | 12.66576 | -61.92100 | 4461 ft | 175 kts | 360° |
| 2026-04-25 14:46 | 12.67790 | -61.92166 | 4463 ft | 175 kts | 359° |
| 2026-04-25 14:46 | 12.69002 | -61.92231 | 4463 ft | 174 kts | 360° |
| 2026-04-25 14:47 | 12.70212 | -61.92294 | 4464 ft | 174 kts | 360° |
| 2026-04-25 14:47 | 12.71013 | -61.92339 | 4462 ft | 174 kts | 359° |
| 2026-04-25 14:47 | 12.72634 | -61.92426 | 4463 ft | 175 kts | 360° |
| 2026-04-25 14:47 | 12.73853 | -61.92487 | 4465 ft | 176 kts | 360° |
| 2026-04-25 14:48 | 12.75074 | -61.92549 | 4466 ft | 176 kts | 360° |
| 2026-04-25 14:48 | 12.76294 | -61.92611 | 4465 ft | 176 kts | 360° |
| 2026-04-25 14:48 | 12.77517 | -61.92674 | 4465 ft | 176 kts | 359° |
| 2026-04-25 14:48 | 12.78739 | -61.92735 | 4461 ft | 176 kts | 0° |
| 2026-04-25 14:49 | 12.79960 | -61.92798 | 4462 ft | 176 kts | 360° |
| 2026-04-25 14:49 | 12.81179 | -61.92863 | 4465 ft | 175 kts | 360° |
| 2026-04-25 14:49 | 12.82400 | -61.92922 | 4464 ft | 176 kts | 360° |
| 2026-04-25 14:49 | 12.83620 | -61.92983 | 4462 ft | 175 kts | 360° |
| 2026-04-25 14:50 | 12.84837 | -61.93045 | 4463 ft | 175 kts | 360° |
| 2026-04-25 14:50 | 12.86057 | -61.93109 | 4463 ft | 175 kts | 360° |
| 2026-04-25 14:50 | 12.87257 | -61.93173 | 4466 ft | 175 kts | 360° |
| 2026-04-25 14:50 | 12.88474 | -61.93238 | 4464 ft | 174 kts | 360° |
| 2026-04-25 14:51 | 12.89686 | -61.93305 | 4466 ft | 174 kts | 360° |
| 2026-04-25 14:51 | 12.90899 | -61.93372 | 4464 ft | 174 kts | 360° |
| 2026-04-25 14:51 | 12.92111 | -61.93438 | 4466 ft | 175 kts | 360° |
| 2026-04-25 14:51 | 12.93329 | -61.93501 | 4467 ft | 176 kts | 360° |
| 2026-04-25 14:52 | 12.94548 | -61.93562 | 4469 ft | 175 kts | 360° |
| 2026-04-25 14:52 | 12.95772 | -61.93624 | 4468 ft | 177 kts | 360° |
| 2026-04-25 14:52 | 12.96998 | -61.93716 | 4465 ft | 177 kts | 349° |
| 2026-04-25 14:52 | 12.97729 | -61.94082 | 4462 ft | 179 kts | 319° |
| 2026-04-25 14:53 | 12.98291 | -61.95598 | 4458 ft | 173 kts | 258° |
| 2026-04-25 14:53 | 12.97719 | -61.96613 | 4458 ft | 164 kts | 216° |
| 2026-04-25 14:53 | 12.96703 | -61.97039 | 4466 ft | 157 kts | 180° |
| 2026-04-25 14:53 | 12.95669 | -61.96770 | 4465 ft | 154 kts | 147° |
| 2026-04-25 14:54 | 12.94825 | -61.96100 | 4474 ft | 153 kts | 142° |
| 2026-04-25 14:54 | 12.94291 | -61.95178 | 4469 ft | 158 kts | 99° |
| 2026-04-25 14:54 | 12.94498 | -61.94066 | 4469 ft | 161 kts | 75° |
| 2026-04-25 14:54 | 12.94865 | -61.92979 | 4468 ft | 162 kts | 75° |
| 2026-04-25 14:55 | 12.95230 | -61.91886 | 4466 ft | 161 kts | 75° |
| 2026-04-25 14:55 | 12.95584 | -61.90796 | 4466 ft | 161 kts | 75° |
| 2026-04-25 14:55 | 12.95936 | -61.89707 | 4470 ft | 161 kts | 76° |
| 2026-04-25 14:55 | 12.96287 | -61.88617 | 4468 ft | 161 kts | 76° |
| 2026-04-25 14:56 | 12.96638 | -61.87524 | 4468 ft | 161 kts | 75° |
| 2026-04-25 14:56 | 12.96985 | -61.86429 | 4468 ft | 162 kts | 76° |
| 2026-04-25 14:56 | 12.97339 | -61.85330 | 4467 ft | 162 kts | 76° |
| 2026-04-25 14:56 | 12.97686 | -61.84230 | 4466 ft | 162 kts | 76° |
| 2026-04-25 14:57 | 12.98031 | -61.83132 | 4467 ft | 162 kts | 76° |
| 2026-04-25 14:57 | 12.98374 | -61.82036 | 4468 ft | 161 kts | 76° |
| 2026-04-25 14:57 | 12.98711 | -61.80948 | 4466 ft | 161 kts | 76° |
| 2026-04-25 14:57 | 12.99054 | -61.79857 | 4466 ft | 160 kts | 75° |
| 2026-04-25 14:58 | 12.99390 | -61.78769 | 4465 ft | 160 kts | 76° |
| 2026-04-25 14:58 | 12.99729 | -61.77679 | 4471 ft | 160 kts | 76° |
| 2026-04-25 14:58 | 13.00068 | -61.76588 | 4468 ft | 161 kts | 76° |
| 2026-04-25 14:58 | 13.00406 | -61.75496 | 4471 ft | 160 kts | 76° |
| 2026-04-25 14:59 | 13.00744 | -61.74407 | 4468 ft | 161 kts | 76° |
| 2026-04-25 14:59 | 13.01086 | -61.73317 | 4472 ft | 160 kts | 76° |
| 2026-04-25 14:59 | 13.01427 | -61.72229 | 4467 ft | 160 kts | 76° |
| 2026-04-25 14:59 | 13.01771 | -61.71142 | 4470 ft | 161 kts | 76° |
| 2026-04-25 15:00 | 13.02118 | -61.70051 | 4473 ft | 161 kts | 76° |
| 2026-04-25 15:00 | 13.02461 | -61.68976 | 4473 ft | 161 kts | 76° |
| 2026-04-25 15:00 | 13.02815 | -61.67883 | 4469 ft | 161 kts | 75° |
| 2026-04-25 15:00 | 13.03163 | -61.66792 | 4470 ft | 161 kts | 76° |
| 2026-04-25 15:01 | 13.03511 | -61.65703 | 4471 ft | 160 kts | 76° |
| 2026-04-25 15:01 | 13.03858 | -61.64615 | 4469 ft | 160 kts | 76° |
| 2026-04-25 15:01 | 13.04203 | -61.63531 | 4470 ft | 160 kts | 76° |
| 2026-04-25 15:01 | 13.04550 | -61.62444 | 4472 ft | 161 kts | 76° |
| 2026-04-25 15:02 | 13.04899 | -61.61355 | 4468 ft | 161 kts | 75° |
| 2026-04-25 15:02 | 13.05245 | -61.60264 | 4467 ft | 161 kts | 76° |
| 2026-04-25 15:02 | 13.05590 | -61.59169 | 4467 ft | 161 kts | 76° |
| 2026-04-25 15:02 | 13.05935 | -61.58071 | 4465 ft | 161 kts | 76° |
| 2026-04-25 15:03 | 13.06278 | -61.56975 | 4467 ft | 161 kts | 76° |
| 2026-04-25 15:03 | 13.06623 | -61.55883 | 4471 ft | 160 kts | 75° |
| 2026-04-25 15:03 | 13.06962 | -61.54796 | 4472 ft | 160 kts | 76° |
| 2026-04-25 15:03 | 13.07304 | -61.53708 | 4473 ft | 161 kts | 76° |
| 2026-04-25 15:04 | 13.07650 | -61.52616 | 4470 ft | 161 kts | 75° |
| 2026-04-25 15:04 | 13.07995 | -61.51523 | 4476 ft | 162 kts | 76° |
| 2026-04-25 15:04 | 13.08340 | -61.50427 | 4476 ft | 161 kts | 76° |
| 2026-04-25 15:04 | 13.08684 | -61.49334 | 4472 ft | 161 kts | 75° |
| 2026-04-25 15:05 | 13.09021 | -61.48243 | 4475 ft | 160 kts | 76° |
| 2026-04-25 15:05 | 13.09361 | -61.47155 | 4473 ft | 160 kts | 76° |
| 2026-04-25 15:05 | 13.09701 | -61.46068 | 4476 ft | 160 kts | 76° |
| 2026-04-25 15:06 | 13.10390 | -61.43891 | 4472 ft | 161 kts | 76° |
| 2026-04-25 15:06 | 13.10732 | -61.42798 | 4475 ft | 161 kts | 75° |
| 2026-04-25 15:06 | 13.11072 | -61.41706 | 4475 ft | 161 kts | 75° |
| 2026-04-25 15:06 | 13.11298 | -61.40601 | 4470 ft | 157 kts | 99° |
| 2026-04-25 15:07 | 13.10834 | -61.39619 | 4475 ft | 154 kts | 125° |
| 2026-04-25 15:07 | 13.10220 | -61.38716 | 4475 ft | 155 kts | 125° |
| 2026-04-25 15:07 | 13.09618 | -61.37799 | 4476 ft | 155 kts | 124° |
| 2026-04-25 15:07 | 13.09024 | -61.36871 | 4480 ft | 156 kts | 124° |
| 2026-04-25 15:08 | 13.08432 | -61.35940 | 4477 ft | 156 kts | 123° |
| 2026-04-25 15:08 | 13.07837 | -61.35004 | 4479 ft | 157 kts | 123° |
| 2026-04-25 15:08 | 13.07249 | -61.34077 | 4478 ft | 157 kts | 123° |
| 2026-04-25 15:08 | 13.06654 | -61.33139 | 4475 ft | 157 kts | 123° |
| 2026-04-25 15:09 | 13.06053 | -61.32213 | 4475 ft | 156 kts | 129° |
| 2026-04-25 15:09 | 13.05111 | -61.31718 | 4473 ft | 159 kts | 174° |
| 2026-04-25 15:09 | 13.03044 | -61.32598 | 4477 ft | 163 kts | 204° |
| 2026-04-25 15:10 | 13.02017 | -61.33087 | 4480 ft | 163 kts | 199° |
| 2026-04-25 15:10 | 13.00965 | -61.33520 | 4476 ft | 163 kts | 198° |
| 2026-04-25 15:10 | 12.98855 | -61.34381 | 4475 ft | 163 kts | 198° |
| 2026-04-25 15:11 | 12.97803 | -61.34813 | 4472 ft | 163 kts | 198° |
| 2026-04-25 15:11 | 12.96754 | -61.35247 | 4471 ft | 162 kts | 198° |
| 2026-04-25 15:11 | 12.95706 | -61.35679 | 4473 ft | 162 kts | 198° |
| 2026-04-25 15:12 | 12.93617 | -61.36541 | 4472 ft | 162 kts | 198° |
| 2026-04-25 15:12 | 12.92572 | -61.36972 | 4475 ft | 162 kts | 198° |
| 2026-04-25 15:12 | 12.91524 | -61.37405 | 4474 ft | 162 kts | 198° |
| 2026-04-25 15:12 | 12.91169 | -61.37551 | 4473 ft | 162 kts | 198° |
| 2026-04-25 15:13 | 12.89431 | -61.38267 | 4472 ft | 161 kts | 198° |
| 2026-04-25 15:13 | 12.87696 | -61.38983 | 4466 ft | 162 kts | 198° |
| 2026-04-25 15:13 | 12.86651 | -61.39414 | 4466 ft | 162 kts | 198° |
| 2026-04-25 15:14 | 12.85606 | -61.39846 | 4469 ft | 162 kts | 198° |
| 2026-04-25 15:14 | 12.84561 | -61.40277 | 4468 ft | 162 kts | 198° |
| 2026-04-25 15:14 | 12.83517 | -61.40708 | 4466 ft | 162 kts | 198° |
| 2026-04-25 15:14 | 12.82473 | -61.41136 | 4462 ft | 161 kts | 198° |
| 2026-04-25 15:15 | 12.81434 | -61.41566 | 4464 ft | 161 kts | 198° |
| 2026-04-25 15:15 | 12.80394 | -61.41994 | 4469 ft | 161 kts | 198° |
| 2026-04-25 15:15 | 12.79352 | -61.42422 | 4465 ft | 162 kts | 198° |
| 2026-04-25 15:15 | 12.78308 | -61.42853 | 4467 ft | 162 kts | 198° |
| 2026-04-25 15:16 | 12.77266 | -61.43281 | 4467 ft | 161 kts | 198° |
| 2026-04-25 15:16 | 12.76224 | -61.43711 | 4465 ft | 161 kts | 198° |
| 2026-04-25 15:16 | 12.74142 | -61.44569 | 4464 ft | 161 kts | 198° |
| 2026-04-25 15:17 | 12.59246 | -61.50706 | 4458 ft | 161 kts | 198° |
| 2026-04-25 15:17 | 12.45159 | -61.56527 | 2956 ft | 183 kts | 208° |
| 2026-04-25 15:17 | 12.44355 | -61.57432 | 2954 ft | 179 kts | 232° |
| 2026-04-25 15:18 | 12.34082 | -61.69770 | 2959 ft | 163 kts | 222° |
| 2026-04-25 15:18 | 12.13299 | -61.93855 | 2962 ft | 168 kts | 223° |
| 2026-04-25 15:18 | 12.10428 | -61.96878 | 2922 ft | 164 kts | 201° |
| 2026-04-25 15:19 | 12.09316 | -61.97086 | 2828 ft | 164 kts | 178° |
| 2026-04-25 15:19 | 12.08556 | -61.97069 | 2756 ft | 166 kts | 175° |
| 2026-04-25 15:19 | 12.06993 | -61.97013 | 2582 ft | 169 kts | 176° |
| 2026-04-25 15:19 | 12.05827 | -61.97012 | 2456 ft | 163 kts | 178° |
| 2026-04-25 15:20 | 12.04730 | -61.97023 | 2342 ft | 153 kts | 178° |
| 2026-04-25 15:20 | 12.03694 | -61.97036 | 2235 ft | 146 kts | 178° |
| 2026-04-25 15:20 | 12.02699 | -61.97040 | 2136 ft | 141 kts | 175° |
| 2026-04-25 15:20 | 12.01774 | -61.96814 | 2034 ft | 135 kts | 151° |
| 2026-04-25 15:21 | 12.01047 | -61.96240 | 1972 ft | 130 kts | 130° |
| 2026-04-25 15:21 | 12.00608 | -61.95470 | 1969 ft | 123 kts | 111° |
| 2026-04-25 15:21 | 12.00473 | -61.94632 | 1968 ft | 116 kts | 93° |
| 2026-04-25 15:21 | 12.00492 | -61.93840 | 1970 ft | 108 kts | 92° |
| 2026-04-25 15:22 | 12.00491 | -61.93090 | 1964 ft | 103 kts | 94° |
| 2026-04-25 15:22 | 12.00485 | -61.92365 | 1959 ft | 101 kts | 94° |
| 2026-04-25 15:22 | 12.00477 | -61.91646 | 1923 ft | 102 kts | 93° |
| 2026-04-25 15:22 | 12.00461 | -61.90942 | 1865 ft | 92 kts | 92° |
| 2026-04-25 15:23 | 12.00476 | -61.90331 | 1764 ft | 81 kts | 92° |
| 2026-04-25 15:23 | 12.00492 | -61.89766 | 1594 ft | 79 kts | 91° |
| 2026-04-25 15:23 | 12.00508 | -61.89203 | 1497 ft | 80 kts | 92° |
| 2026-04-25 15:23 | 12.00523 | -61.88639 | 1445 ft | 79 kts | 92° |
| 2026-04-25 15:24 | 12.00530 | -61.88071 | 1397 ft | 83 kts | 93° |
| 2026-04-25 15:24 | 12.00531 | -61.87484 | 1373 ft | 83 kts | 94° |
| 2026-04-25 15:24 | 12.00508 | -61.86885 | 1297 ft | 86 kts | 95° |
| 2026-04-25 15:24 | 12.00491 | -61.86469 | 1220 ft | 87 kts | 94° |
| 2026-04-25 15:25 | 12.00482 | -61.85660 | 1105 ft | 84 kts | 93° |
| 2026-04-25 15:25 | 12.00468 | -61.85057 | 1019 ft | 85 kts | 92° |
| 2026-04-25 15:25 | 12.00459 | -61.84449 | 946 ft | 86 kts | 94° |
| 2026-04-25 15:25 | 12.00460 | -61.83842 | 881 ft | 85 kts | 92° |
| 2026-04-25 15:26 | 12.00450 | -61.83232 | 771 ft | 87 kts | 93° |
| 2026-04-25 15:26 | 12.00436 | -61.82619 | 646 ft | 86 kts | 93° |
| 2026-04-25 15:26 | 12.00435 | -61.81999 | 494 ft | 87 kts | 92° |
| 2026-04-25 15:26 | 12.00428 | -61.81399 | 395 ft | 83 kts | 92° |
| 2026-04-25 15:27 | 12.00434 | -61.80804 | 278 ft | 85 kts | 94° |
| 2026-04-25 15:27 | 12.00414 | -61.80205 | 131 ft | 81 kts | 91° |
| 2026-04-25 15:27 | 12.00412 | -61.79234 | 36 ft | 36 kts | 89° |
| 2026-04-25 15:28 | 12.00418 | -61.79051 | 39 ft | 19 kts | 38° |
| 2026-04-25 15:28 | 12.00510 | -61.79007 | 38 ft | 15 kts | 77° |
| 2026-04-25 15:28 | 12.00521 | -61.78878 | 40 ft | 21 kts | 84° |
| 2026-04-25 15:28 | 12.00535 | -61.78723 | 37 ft | 19 kts | 76° |
| 2026-04-25 15:29 | 12.00601 | -61.78709 | 36 ft | 5 kts | 301° |
| 2026-04-25 15:29 | 12.00630 | -61.78745 | 36 ft | 3 kts | 286° |
| 2026-04-25 15:29 | 12.00631 | -61.78750 | 36 ft | 0 kts | 284° |